createdAt,value
2018-08-31T00:01:31.000Z,100975
2018-08-31T00:02:31.000Z,100967
2018-08-31T00:03:31.000Z,100962
2018-08-31T00:05:31.000Z,100961
2018-08-31T00:07:31.000Z,100956
2018-08-31T00:08:31.000Z,100959
2018-08-31T00:10:31.000Z,100958
2018-08-31T00:12:31.000Z,100952
2018-08-31T00:14:16.000Z,100958
2018-08-31T00:15:31.000Z,100958
2018-08-31T00:17:31.000Z,100958
2018-08-31T00:19:31.000Z,100954
2018-08-31T00:21:01.000Z,100955
2018-08-31T00:22:31.000Z,100950
2018-08-31T00:24:31.000Z,100954
2018-08-31T00:26:31.000Z,100953
2018-08-31T00:28:31.000Z,100950
2018-08-31T00:30:31.000Z,100948
2018-08-31T00:32:31.000Z,100953
2018-08-31T00:34:31.000Z,100953
2018-08-31T00:36:01.000Z,100947
2018-08-31T00:37:31.000Z,100952
2018-08-31T00:39:31.000Z,100953
2018-08-31T00:41:31.000Z,100950
2018-08-31T00:42:31.000Z,100952
2018-08-31T00:44:16.000Z,100955
2018-08-31T00:46:31.000Z,100959
2018-08-31T00:48:31.000Z,100957
2018-08-31T00:50:31.000Z,100960
2018-08-31T00:52:16.000Z,100966
2018-08-31T00:53:31.000Z,100961
2018-08-31T00:55:31.000Z,100969
2018-08-31T00:57:16.000Z,100965
2018-08-31T00:58:31.000Z,100964
2018-08-31T01:00:16.000Z,100958
2018-08-31T01:01:17.000Z,100957
2018-08-31T01:02:32.000Z,100955
2018-08-31T01:03:32.000Z,100954
2018-08-31T01:05:32.000Z,100960
2018-08-31T01:07:17.000Z,100962
2018-08-31T01:08:32.000Z,100955
2018-08-31T01:09:32.000Z,100957
2018-08-31T01:11:32.000Z,100957
2018-08-31T01:12:32.000Z,100961
2018-08-31T01:13:32.000Z,100964
2018-08-31T01:15:32.000Z,100961
2018-08-31T01:16:32.000Z,100963
2018-08-31T01:18:32.000Z,100962
2018-08-31T01:19:32.000Z,100965
2018-08-31T01:21:17.000Z,100966
2018-08-31T01:22:32.000Z,100963
2018-08-31T01:24:17.000Z,100963
2018-08-31T01:25:32.000Z,100959
2018-08-31T01:26:32.000Z,100960
2018-08-31T01:28:32.000Z,100959
2018-08-31T01:29:32.000Z,100962
2018-08-31T01:31:17.000Z,100958
2018-08-31T01:32:32.000Z,100960
2018-08-31T01:34:17.000Z,100959
2018-08-31T01:35:32.000Z,100956
2018-08-31T01:37:32.000Z,100953
2018-08-31T01:39:32.000Z,100956
2018-08-31T01:41:32.000Z,100955
2018-08-31T01:43:32.000Z,100952
2018-08-31T01:45:17.000Z,100956
2018-08-31T01:46:32.000Z,100949
2018-08-31T01:47:32.000Z,100955
2018-08-31T01:49:32.000Z,100954
2018-08-31T01:51:32.000Z,100953
2018-08-31T01:53:17.000Z,100953
2018-08-31T01:54:32.000Z,100957
2018-08-31T01:56:17.000Z,100954
2018-08-31T01:57:32.000Z,100956
2018-08-31T01:59:32.000Z,100951
2018-08-31T02:01:32.000Z,100951
2018-08-31T02:03:32.000Z,100947
2018-08-31T02:05:16.000Z,100954
2018-08-31T02:06:31.000Z,100950
2018-08-31T02:08:31.000Z,100953
2018-08-31T02:10:31.000Z,100951
2018-08-31T02:11:31.000Z,100947
2018-08-31T02:13:17.000Z,100899
2018-08-31T02:15:16.000Z,100947
2018-08-31T02:16:31.000Z,100951
2018-08-31T02:18:31.000Z,100947
2018-08-31T02:20:31.000Z,100951
2018-08-31T02:22:16.000Z,100949
2018-08-31T02:23:31.000Z,100956
2018-08-31T02:24:31.000Z,100951
2018-08-31T02:26:31.000Z,100943
2018-08-31T02:27:31.000Z,100946
2018-08-31T02:29:31.000Z,100947
2018-08-31T02:31:31.000Z,100943
2018-08-31T02:32:31.000Z,100942
2018-08-31T02:34:31.000Z,100945
2018-08-31T02:36:31.000Z,100944
2018-08-31T02:37:31.000Z,100944
2018-08-31T02:39:16.000Z,100942
2018-08-31T02:40:31.000Z,100941
2018-08-31T02:42:31.000Z,100946
2018-08-31T02:44:16.000Z,100947
2018-08-31T02:45:31.000Z,100951
2018-08-31T02:46:31.000Z,100950
2018-08-31T02:47:31.000Z,100948
2018-08-31T02:49:31.000Z,100945
2018-08-31T02:51:31.000Z,100947
2018-08-31T02:53:31.000Z,100945
2018-08-31T02:55:31.000Z,100950
2018-08-31T02:56:31.000Z,100949
2018-08-31T02:57:32.000Z,100950
2018-08-31T02:59:31.000Z,100946
2018-08-31T03:01:31.000Z,100947
2018-08-31T03:02:31.000Z,100945
2018-08-31T03:04:16.000Z,100953
2018-08-31T03:05:31.000Z,100948
2018-08-31T03:07:32.000Z,100944
2018-08-31T03:09:31.000Z,100946
2018-08-31T03:11:16.000Z,100949
2018-08-31T03:12:31.000Z,100946
2018-08-31T03:13:31.000Z,100949
2018-08-31T03:15:31.000Z,100948
2018-08-31T03:16:31.000Z,100950
2018-08-31T03:18:31.000Z,100949
2018-08-31T03:20:16.000Z,100947
2018-08-31T03:21:31.000Z,100947
2018-08-31T03:23:16.000Z,100949
2018-08-31T03:24:31.000Z,100952
2018-08-31T03:26:16.000Z,100950
2018-08-31T03:27:16.000Z,100906
2018-08-31T03:29:31.000Z,100951
2018-08-31T03:30:31.000Z,100948
2018-08-31T03:32:16.000Z,100951
2018-08-31T03:33:31.000Z,100946
2018-08-31T03:35:01.000Z,100950
2018-08-31T03:36:31.000Z,100948
2018-08-31T03:38:31.000Z,100945
2018-08-31T03:40:31.000Z,100940
2018-08-31T03:41:31.000Z,100940
2018-08-31T03:43:31.000Z,100942
2018-08-31T03:44:31.000Z,100942
2018-08-31T03:46:31.000Z,100943
2018-08-31T03:47:31.000Z,100943
2018-08-31T03:49:31.000Z,100939
2018-08-31T03:51:31.000Z,100940
2018-08-31T03:52:31.000Z,100940
2018-08-31T03:54:31.000Z,100949
2018-08-31T03:56:01.000Z,100948
2018-08-31T03:57:31.000Z,100947
2018-08-31T03:59:31.000Z,100948
2018-08-31T04:00:31.000Z,100947
2018-08-31T04:02:31.000Z,100949
2018-08-31T04:04:31.000Z,100946
2018-08-31T04:06:31.000Z,100952
2018-08-31T04:08:31.000Z,100953
2018-08-31T04:10:31.000Z,100954
2018-08-31T04:12:16.000Z,100951
2018-08-31T04:13:31.000Z,100953
2018-08-31T04:15:16.000Z,100960
2018-08-31T04:16:31.000Z,100955
2018-08-31T04:17:31.000Z,100954
2018-08-31T04:19:31.000Z,100958
2018-08-31T04:21:31.000Z,100951
2018-08-31T04:23:31.000Z,100959
2018-08-31T04:25:31.000Z,100964
2018-08-31T04:27:31.000Z,100966
2018-08-31T04:29:16.000Z,100963
2018-08-31T04:30:31.000Z,100962
2018-08-31T04:31:31.000Z,100961
2018-08-31T04:32:31.000Z,100966
2018-08-31T04:34:31.000Z,100970
2018-08-31T04:36:31.000Z,100971
2018-08-31T04:37:31.000Z,100974
2018-08-31T04:39:31.000Z,100977
2018-08-31T04:40:31.000Z,100975
2018-08-31T04:42:31.000Z,100979
2018-08-31T04:44:31.000Z,100980
2018-08-31T04:46:31.000Z,100984
2018-08-31T04:48:31.000Z,100983
2018-08-31T04:50:31.000Z,100981
2018-08-31T04:52:31.000Z,100987
2018-08-31T04:54:31.000Z,100982
2018-08-31T04:55:31.000Z,100985
2018-08-31T04:56:31.000Z,100982
2018-08-31T04:58:31.000Z,100983
2018-08-31T04:59:31.000Z,100984
2018-08-31T05:00:31.000Z,100990
2018-08-31T05:02:31.000Z,100985
2018-08-31T05:04:31.000Z,100993
2018-08-31T05:05:31.000Z,100984
2018-08-31T05:07:31.000Z,100983
2018-08-31T05:09:31.000Z,100994
2018-08-31T05:11:16.000Z,100985
2018-08-31T05:12:16.000Z,100990
2018-08-31T05:13:31.000Z,100986
2018-08-31T05:15:16.000Z,100981
2018-08-31T05:16:31.000Z,100985
2018-08-31T05:17:31.000Z,100986
2018-08-31T05:19:31.000Z,100986
2018-08-31T05:20:31.000Z,100982
2018-08-31T05:22:16.000Z,100984
2018-08-31T05:23:31.000Z,100984
2018-08-31T05:24:31.000Z,100985
2018-08-31T05:26:31.000Z,100985
2018-08-31T05:27:31.000Z,100987
2018-08-31T05:29:31.000Z,100985
2018-08-31T05:31:31.000Z,100987
2018-08-31T05:33:31.000Z,100991
2018-08-31T05:35:31.000Z,100990
2018-08-31T05:36:31.000Z,100992
2018-08-31T05:38:31.000Z,100994
2018-08-31T05:39:31.000Z,100994
2018-08-31T05:41:31.000Z,100992
2018-08-31T05:43:16.000Z,101001
2018-08-31T05:44:31.000Z,101002
2018-08-31T05:45:31.000Z,100999
2018-08-31T05:47:31.000Z,100999
2018-08-31T05:49:31.000Z,100998
2018-08-31T05:50:31.000Z,101007
2018-08-31T05:52:31.000Z,101004
2018-08-31T05:54:31.000Z,100997
2018-08-31T05:56:31.000Z,100998
2018-08-31T05:57:31.000Z,101002
2018-08-31T05:58:31.000Z,100998
2018-08-31T06:00:31.000Z,101001
2018-08-31T06:02:31.000Z,101006
2018-08-31T06:04:31.000Z,101003
2018-08-31T06:05:31.000Z,101000
2018-08-31T06:07:31.000Z,101008
2018-08-31T06:09:31.000Z,101008
2018-08-31T06:11:31.000Z,101007
2018-08-31T06:13:31.000Z,101006
2018-08-31T06:15:31.000Z,101013
2018-08-31T06:17:31.000Z,101009
2018-08-31T06:18:31.000Z,101015
2018-08-31T06:20:32.000Z,101012
2018-08-31T06:22:32.000Z,101010
2018-08-31T06:24:32.000Z,101007
2018-08-31T06:26:32.000Z,101006
2018-08-31T06:28:32.000Z,101011
2018-08-31T06:30:32.000Z,101013
2018-08-31T06:32:32.000Z,101013
2018-08-31T06:34:32.000Z,101013
2018-08-31T06:36:32.000Z,101016
2018-08-31T06:38:32.000Z,101023
2018-08-31T06:39:32.000Z,101023
2018-08-31T06:41:32.000Z,101021
2018-08-31T06:42:32.000Z,101024
2018-08-31T06:43:32.000Z,101020
2018-08-31T06:45:32.000Z,101026
2018-08-31T06:46:32.000Z,101016
2018-08-31T06:48:32.000Z,101020
2018-08-31T06:50:01.000Z,101015
2018-08-31T06:51:32.000Z,101020
2018-08-31T06:53:16.000Z,101020
2018-08-31T06:54:32.000Z,101023
2018-08-31T06:56:32.000Z,101023
2018-08-31T06:57:32.000Z,101022
2018-08-31T06:59:32.000Z,101024
2018-08-31T07:01:32.000Z,101019
2018-08-31T07:02:32.000Z,101011
2018-08-31T07:04:32.000Z,101018
2018-08-31T07:06:32.000Z,101022
2018-08-31T07:08:16.000Z,101021
2018-08-31T07:09:32.000Z,101024
2018-08-31T07:11:32.000Z,101024
2018-08-31T07:13:32.000Z,101029
2018-08-31T07:15:32.000Z,101027
2018-08-31T07:17:32.000Z,101024
2018-08-31T07:19:32.000Z,101029
2018-08-31T07:21:32.000Z,101027
2018-08-31T07:23:31.000Z,101023
2018-08-31T07:25:16.000Z,101026
2018-08-31T07:26:31.000Z,101026
2018-08-31T07:28:16.000Z,101028
2018-08-31T07:29:31.000Z,101026
2018-08-31T07:30:31.000Z,101028
2018-08-31T07:32:31.000Z,101034
2018-08-31T07:34:31.000Z,101027
2018-08-31T07:36:31.000Z,101028
2018-08-31T07:37:31.000Z,101034
2018-08-31T07:38:31.000Z,101035
2018-08-31T07:40:31.000Z,101031
2018-08-31T07:41:31.000Z,101040
2018-08-31T07:43:31.000Z,101038
2018-08-31T07:45:31.000Z,101039
2018-08-31T07:47:31.000Z,101034
2018-08-31T07:48:31.000Z,101039
2018-08-31T07:50:16.000Z,101040
2018-08-31T07:51:31.000Z,101039
2018-08-31T07:52:31.000Z,101039
2018-08-31T07:54:31.000Z,101037
2018-08-31T07:56:31.000Z,101039
2018-08-31T07:58:31.000Z,101041
2018-08-31T08:00:31.000Z,101039
2018-08-31T08:01:31.000Z,101037
2018-08-31T08:03:31.000Z,101042
2018-08-31T08:05:31.000Z,101043
2018-08-31T08:06:31.000Z,101048
2018-08-31T08:08:31.000Z,101039
2018-08-31T08:10:31.000Z,101050
2018-08-31T08:12:31.000Z,101047
2018-08-31T08:14:31.000Z,101049
2018-08-31T08:16:16.000Z,101047
2018-08-31T08:17:31.000Z,101045
2018-08-31T08:19:31.000Z,101047
2018-08-31T08:21:16.000Z,101048
2018-08-31T08:22:31.000Z,101054
2018-08-31T08:24:31.000Z,101050
2018-08-31T08:26:31.000Z,101048
2018-08-31T08:27:31.000Z,101051
2018-08-31T08:29:31.000Z,101048
2018-08-31T08:31:31.000Z,101053
2018-08-31T08:33:16.000Z,101053
2018-08-31T08:34:31.000Z,101052
2018-08-31T08:36:31.000Z,101053
2018-08-31T08:38:31.000Z,101056
2018-08-31T08:39:31.000Z,101049
2018-08-31T08:40:31.000Z,101055
2018-08-31T08:42:31.000Z,101054
2018-08-31T08:43:31.000Z,101051
2018-08-31T08:45:31.000Z,101050
2018-08-31T08:46:31.000Z,101054
2018-08-31T08:48:31.000Z,101052
2018-08-31T08:50:31.000Z,101052
2018-08-31T08:51:31.000Z,101048
2018-08-31T08:53:31.000Z,101058
2018-08-31T08:55:31.000Z,101053
2018-08-31T08:57:31.000Z,101049
2018-08-31T08:58:31.000Z,101055
2018-08-31T09:00:31.000Z,101052
2018-08-31T09:01:31.000Z,101053
2018-08-31T09:03:16.000Z,101044
2018-08-31T09:04:31.000Z,101050
2018-08-31T09:05:31.000Z,101055
2018-08-31T09:07:31.000Z,101049
2018-08-31T09:09:31.000Z,101052
2018-08-31T09:10:31.000Z,101055
2018-08-31T09:12:31.000Z,101047
2018-08-31T09:13:31.000Z,101055
2018-08-31T09:14:31.000Z,101053
2018-08-31T09:16:31.000Z,101047
2018-08-31T09:18:31.000Z,101051
2018-08-31T09:19:31.000Z,101053
2018-08-31T09:20:31.000Z,101049
2018-08-31T09:22:16.000Z,101046
2018-08-31T09:24:31.000Z,101049
2018-08-31T09:26:31.000Z,101055
2018-08-31T09:27:31.000Z,101059
2018-08-31T09:29:31.000Z,101057
2018-08-31T09:31:01.000Z,101053
2018-08-31T09:32:32.000Z,101048
2018-08-31T09:34:32.000Z,101050
2018-08-31T09:35:32.000Z,101053
2018-08-31T09:37:32.000Z,101047
2018-08-31T09:38:32.000Z,101046
2018-08-31T09:40:32.000Z,101047
2018-08-31T09:41:32.000Z,101044
2018-08-31T09:43:32.000Z,101041
2018-08-31T09:45:17.000Z,101038
2018-08-31T09:46:17.000Z,101040
2018-08-31T09:47:32.000Z,101045
2018-08-31T09:49:17.000Z,101044
2018-08-31T09:50:32.000Z,101041
2018-08-31T09:52:17.000Z,101042
2018-08-31T09:53:32.000Z,101041
2018-08-31T09:54:32.000Z,101042
2018-08-31T09:56:17.000Z,101036
2018-08-31T09:57:32.000Z,101033
2018-08-31T09:59:32.000Z,101029
2018-08-31T10:01:32.000Z,101030
2018-08-31T10:03:32.000Z,101024
2018-08-31T10:05:17.000Z,101027
2018-08-31T10:06:32.000Z,101029
2018-08-31T10:08:32.000Z,101024
2018-08-31T10:09:32.000Z,101026
2018-08-31T10:11:32.000Z,101019
2018-08-31T10:12:32.000Z,101022
2018-08-31T10:14:32.000Z,101021
2018-08-31T10:16:17.000Z,100955
2018-08-31T10:18:32.000Z,101023
2018-08-31T10:20:32.000Z,101024
2018-08-31T10:21:32.000Z,101023
2018-08-31T10:22:32.000Z,101027
2018-08-31T10:24:32.000Z,101021
2018-08-31T10:25:32.000Z,101022
2018-08-31T10:27:32.000Z,101031
2018-08-31T10:29:17.000Z,101028
2018-08-31T10:30:32.000Z,101020
2018-08-31T10:32:32.000Z,101026
2018-08-31T10:34:32.000Z,101025
2018-08-31T10:35:32.000Z,101022
2018-08-31T10:36:32.000Z,101026
2018-08-31T10:38:32.000Z,101020
2018-08-31T10:39:32.000Z,101022
2018-08-31T10:41:32.000Z,101024
2018-08-31T10:43:32.000Z,101022
2018-08-31T10:45:17.000Z,101020
2018-08-31T10:46:17.000Z,101019
2018-08-31T10:47:32.000Z,101024
2018-08-31T10:49:32.000Z,101016
2018-08-31T10:51:32.000Z,101023
2018-08-31T10:52:32.000Z,101023
2018-08-31T10:54:32.000Z,101027
2018-08-31T10:56:32.000Z,101023
2018-08-31T10:57:32.000Z,101026
2018-08-31T10:59:32.000Z,101023
2018-08-31T11:00:32.000Z,101018
2018-08-31T11:02:32.000Z,101019
2018-08-31T11:04:17.000Z,101021
2018-08-31T11:05:32.000Z,101019
2018-08-31T11:06:32.000Z,101016
2018-08-31T11:08:17.000Z,101016
2018-08-31T11:09:32.000Z,101016
2018-08-31T11:10:32.000Z,101017
2018-08-31T11:12:17.000Z,101012
2018-08-31T11:13:32.000Z,101010
2018-08-31T11:15:32.000Z,101012
2018-08-31T11:17:32.000Z,101005
2018-08-31T11:18:32.000Z,101006
2018-08-31T11:19:32.000Z,101008
2018-08-31T11:21:32.000Z,101010
2018-08-31T11:22:32.000Z,101010
2018-08-31T11:24:32.000Z,101010
2018-08-31T11:26:32.000Z,101018
2018-08-31T11:28:32.000Z,101013
2018-08-31T11:29:32.000Z,101015
2018-08-31T11:31:32.000Z,101011
2018-08-31T11:33:32.000Z,101021
2018-08-31T11:35:32.000Z,101023
2018-08-31T11:36:32.000Z,101022
2018-08-31T11:38:32.000Z,101020
2018-08-31T11:39:32.000Z,101018
2018-08-31T11:41:32.000Z,101022
2018-08-31T11:42:32.000Z,101022
2018-08-31T11:44:32.000Z,101019
2018-08-31T11:46:32.000Z,101014
2018-08-31T11:47:32.000Z,101014
2018-08-31T11:49:32.000Z,101018
2018-08-31T11:51:32.000Z,101019
2018-08-31T11:52:32.000Z,101010
2018-08-31T11:54:32.000Z,101013
2018-08-31T11:55:32.000Z,101011
2018-08-31T11:57:32.000Z,101008
2018-08-31T11:59:32.000Z,101007
2018-08-31T12:01:32.000Z,101009
2018-08-31T12:03:32.000Z,101008
2018-08-31T12:04:32.000Z,101009
2018-08-31T12:06:32.000Z,101002
2018-08-31T12:08:32.000Z,100994
2018-08-31T12:10:32.000Z,101000
2018-08-31T12:12:16.000Z,100997
2018-08-31T12:13:32.000Z,100994
2018-08-31T12:15:32.000Z,100995
2018-08-31T12:17:31.000Z,100981
2018-08-31T12:19:32.000Z,100981
2018-08-31T12:21:32.000Z,100985
2018-08-31T12:23:32.000Z,100992
2018-08-31T12:25:32.000Z,100981
2018-08-31T12:26:32.000Z,100988
2018-08-31T12:28:32.000Z,100984
2018-08-31T12:29:32.000Z,100977
2018-08-31T12:30:32.000Z,100984
2018-08-31T12:32:32.000Z,100983
2018-08-31T12:33:32.000Z,100978
2018-08-31T12:35:32.000Z,100987
2018-08-31T12:36:32.000Z,100983
2018-08-31T12:38:16.000Z,100975
2018-08-31T12:39:32.000Z,100985
2018-08-31T12:41:32.000Z,100981
2018-08-31T12:43:31.000Z,100984
2018-08-31T12:44:31.000Z,100982
2018-08-31T12:46:31.000Z,100983
2018-08-31T12:48:31.000Z,100981
2018-08-31T12:50:31.000Z,100982
2018-08-31T12:52:31.000Z,100983
2018-08-31T12:54:16.000Z,100987
2018-08-31T12:55:31.000Z,100979
2018-08-31T12:57:31.000Z,100984
2018-08-31T12:58:31.000Z,100979
2018-08-31T12:59:31.000Z,100982
2018-08-31T13:01:31.000Z,100985
2018-08-31T13:03:31.000Z,100982
2018-08-31T13:05:31.000Z,100989
2018-08-31T13:07:31.000Z,100980
2018-08-31T13:09:31.000Z,100981
2018-08-31T13:10:31.000Z,100972
2018-08-31T13:12:16.000Z,100975
2018-08-31T13:13:31.000Z,100977
2018-08-31T13:14:31.000Z,100977
2018-08-31T13:15:31.000Z,100976
2018-08-31T13:17:31.000Z,100979
2018-08-31T13:19:31.000Z,100979
2018-08-31T13:21:31.000Z,100974
2018-08-31T13:23:31.000Z,100971
2018-08-31T13:25:31.000Z,100970
2018-08-31T13:27:31.000Z,100962
2018-08-31T13:29:31.000Z,100969
2018-08-31T13:31:16.000Z,100970
2018-08-31T13:32:31.000Z,100968
2018-08-31T13:33:31.000Z,100964
2018-08-31T13:35:31.000Z,100961
2018-08-31T13:36:31.000Z,100963
2018-08-31T13:38:16.000Z,100965
2018-08-31T13:39:31.000Z,100964
2018-08-31T13:41:31.000Z,100963
2018-08-31T13:42:31.000Z,100961
2018-08-31T13:44:31.000Z,100960
2018-08-31T13:45:32.000Z,100965
2018-08-31T13:46:32.000Z,100963
2018-08-31T13:48:32.000Z,100964
2018-08-31T13:50:32.000Z,100961
2018-08-31T13:51:32.000Z,100961
2018-08-31T13:53:17.000Z,100962
2018-08-31T13:54:32.000Z,100962
2018-08-31T13:55:32.000Z,100962
2018-08-31T13:57:17.000Z,100961
2018-08-31T13:58:17.000Z,100968
2018-08-31T13:59:32.000Z,100960
2018-08-31T14:01:32.000Z,100962
2018-08-31T14:03:32.000Z,100956
2018-08-31T14:05:32.000Z,100963
2018-08-31T14:07:32.000Z,100960
2018-08-31T14:08:32.000Z,100963
2018-08-31T14:09:32.000Z,100969
2018-08-31T14:11:32.000Z,100970
2018-08-31T14:13:32.000Z,100973
2018-08-31T14:14:32.000Z,100967
2018-08-31T14:16:17.000Z,100966
2018-08-31T14:17:32.000Z,100964
2018-08-31T14:19:17.000Z,100966
2018-08-31T14:20:32.000Z,100979
2018-08-31T14:22:32.000Z,100977
2018-08-31T14:24:32.000Z,100971
2018-08-31T14:25:32.000Z,100978
2018-08-31T14:27:32.000Z,100970
2018-08-31T14:29:17.000Z,100977
2018-08-31T14:30:32.000Z,100970
2018-08-31T14:32:32.000Z,100977
2018-08-31T14:34:17.000Z,100974
2018-08-31T14:35:32.000Z,100974
2018-08-31T14:37:32.000Z,100975
2018-08-31T14:39:17.000Z,100978
2018-08-31T14:40:32.000Z,100973
2018-08-31T14:42:32.000Z,100974
2018-08-31T14:44:32.000Z,100974
2018-08-31T14:46:32.000Z,100977
2018-08-31T14:47:32.000Z,100978
2018-08-31T14:49:32.000Z,100978
2018-08-31T14:50:32.000Z,100978
2018-08-31T14:52:32.000Z,100979
2018-08-31T14:54:17.000Z,100979
2018-08-31T14:55:32.000Z,100977
2018-08-31T14:57:32.000Z,100975
2018-08-31T14:59:32.000Z,100972
2018-08-31T15:00:32.000Z,100973
2018-08-31T15:02:32.000Z,100971
2018-08-31T15:04:17.000Z,100975
2018-08-31T15:05:32.000Z,100975
2018-08-31T15:07:32.000Z,100971
2018-08-31T15:09:32.000Z,100970
2018-08-31T15:11:32.000Z,100978
2018-08-31T15:13:32.000Z,100981
2018-08-31T15:15:32.000Z,100988
2018-08-31T15:17:32.000Z,100987
2018-08-31T15:19:17.000Z,100980
2018-08-31T15:20:17.000Z,100984
2018-08-31T15:21:32.000Z,100979
2018-08-31T15:22:32.000Z,100977
2018-08-31T15:24:17.000Z,100979
2018-08-31T15:25:32.000Z,100978
2018-08-31T15:26:32.000Z,100983
2018-08-31T15:27:32.000Z,100984
2018-08-31T15:29:32.000Z,100983
2018-08-31T15:31:32.000Z,100979
2018-08-31T15:33:32.000Z,100976
2018-08-31T15:35:01.000Z,100981
2018-08-31T15:36:32.000Z,100981
2018-08-31T15:38:32.000Z,100981
2018-08-31T15:40:32.000Z,100975
2018-08-31T15:42:32.000Z,100974
2018-08-31T15:43:32.000Z,100976
2018-08-31T15:45:32.000Z,100975
2018-08-31T15:47:32.000Z,100980
2018-08-31T15:49:32.000Z,100977
2018-08-31T15:51:32.000Z,100980
2018-08-31T15:52:32.000Z,100972
2018-08-31T15:54:32.000Z,100971
2018-08-31T15:56:32.000Z,100975
2018-08-31T15:57:32.000Z,100971
2018-08-31T15:59:32.000Z,100972
2018-08-31T16:01:17.000Z,100973
2018-08-31T16:02:32.000Z,100962
2018-08-31T16:03:32.000Z,100967
2018-08-31T16:04:32.000Z,100972
2018-08-31T16:06:32.000Z,100969
2018-08-31T16:07:32.000Z,100972
2018-08-31T16:09:32.000Z,100973
2018-08-31T16:11:32.000Z,100970
2018-08-31T16:13:32.000Z,100974
2018-08-31T16:15:32.000Z,100971
2018-08-31T16:17:32.000Z,100972
2018-08-31T16:19:17.000Z,100979
2018-08-31T16:20:32.000Z,100974
2018-08-31T16:21:32.000Z,100974
2018-08-31T16:23:32.000Z,100975
2018-08-31T16:25:32.000Z,100975
2018-08-31T16:27:32.000Z,100975
2018-08-31T16:29:02.000Z,100976
2018-08-31T16:30:32.000Z,100976
2018-08-31T16:31:32.000Z,100976
2018-08-31T16:33:32.000Z,100972
2018-08-31T16:35:32.000Z,100973
2018-08-31T16:37:32.000Z,100975
2018-08-31T16:39:32.000Z,100976
2018-08-31T16:41:32.000Z,100975
2018-08-31T16:42:32.000Z,100981
2018-08-31T16:44:32.000Z,100979
2018-08-31T16:45:32.000Z,100975
2018-08-31T16:47:32.000Z,100982
2018-08-31T16:49:32.000Z,100981
2018-08-31T16:51:32.000Z,100980
2018-08-31T16:53:32.000Z,100979
2018-08-31T16:55:32.000Z,100981
2018-08-31T16:57:32.000Z,100978
2018-08-31T16:59:17.000Z,100980
2018-08-31T17:00:32.000Z,100979
2018-08-31T17:02:32.000Z,100980
2018-08-31T17:03:32.000Z,100980
2018-08-31T17:05:32.000Z,100982
2018-08-31T17:06:32.000Z,100985
2018-08-31T17:08:32.000Z,100982
2018-08-31T17:09:32.000Z,100980
2018-08-31T17:10:32.000Z,100978
2018-08-31T17:12:32.000Z,100977
2018-08-31T17:13:32.000Z,100979
2018-08-31T17:14:32.000Z,100988
2018-08-31T17:15:32.000Z,100983
2018-08-31T17:17:32.000Z,100983
2018-08-31T17:19:32.000Z,100991
2018-08-31T17:21:32.000Z,100998
2018-08-31T17:23:32.000Z,100995
2018-08-31T17:25:32.000Z,100992
2018-08-31T17:26:32.000Z,100990
2018-08-31T17:28:32.000Z,100993
2018-08-31T17:30:17.000Z,100988
2018-08-31T17:31:32.000Z,100992
2018-08-31T17:33:32.000Z,100991
2018-08-31T17:35:32.000Z,100995
2018-08-31T17:36:32.000Z,100990
2018-08-31T17:38:32.000Z,100996
2018-08-31T17:40:17.000Z,101000
2018-08-31T17:41:32.000Z,100993
2018-08-31T17:42:32.000Z,101003
2018-08-31T17:44:32.000Z,100998
2018-08-31T17:46:17.000Z,101006
2018-08-31T17:47:32.000Z,101005
2018-08-31T17:49:32.000Z,101014
2018-08-31T17:51:32.000Z,101011
2018-08-31T17:52:32.000Z,101008
2018-08-31T17:53:32.000Z,101014
2018-08-31T17:55:32.000Z,101020
2018-08-31T17:57:32.000Z,101016
2018-08-31T17:59:32.000Z,101017
2018-08-31T18:01:32.000Z,101015
2018-08-31T18:02:32.000Z,101018
2018-08-31T18:04:16.000Z,101022
2018-08-31T18:05:32.000Z,101019
2018-08-31T18:07:32.000Z,101021
2018-08-31T18:09:16.000Z,101019
2018-08-31T18:10:32.000Z,101018
2018-08-31T18:12:32.000Z,101023
2018-08-31T18:14:32.000Z,101024
2018-08-31T18:15:32.000Z,101024
2018-08-31T18:17:32.000Z,101028
2018-08-31T18:18:32.000Z,101024
2018-08-31T18:20:32.000Z,101032
2018-08-31T18:22:32.000Z,101033
2018-08-31T18:23:32.000Z,101035
2018-08-31T18:24:32.000Z,101041
2018-08-31T18:26:32.000Z,101047
2018-08-31T18:27:32.000Z,101042
2018-08-31T18:29:17.000Z,100982
2018-08-31T18:31:32.000Z,101044
2018-08-31T18:33:32.000Z,101053
2018-08-31T18:35:32.000Z,101057
2018-08-31T18:37:32.000Z,101056
2018-08-31T18:39:32.000Z,101067
2018-08-31T18:41:32.000Z,101061
2018-08-31T18:42:32.000Z,101064
2018-08-31T18:43:32.000Z,101065
2018-08-31T18:45:32.000Z,101068
2018-08-31T18:47:32.000Z,101069
2018-08-31T18:48:32.000Z,101074
2018-08-31T18:50:32.000Z,101075
2018-08-31T18:51:32.000Z,101074
2018-08-31T18:53:16.000Z,101073
2018-08-31T18:54:32.000Z,101071
2018-08-31T18:56:32.000Z,101075
2018-08-31T18:58:17.000Z,101034
2018-08-31T19:00:16.000Z,101075
2018-08-31T19:01:32.000Z,101082
2018-08-31T19:03:32.000Z,101078
2018-08-31T19:04:31.000Z,101080
2018-08-31T19:06:31.000Z,101090
2018-08-31T19:08:31.000Z,101090
2018-08-31T19:09:31.000Z,101084
2018-08-31T19:10:31.000Z,101087
2018-08-31T19:12:31.000Z,101092
2018-08-31T19:14:16.000Z,101093
2018-08-31T19:15:31.000Z,101092
2018-08-31T19:17:16.000Z,101096
2018-08-31T19:18:31.000Z,101099
2018-08-31T19:20:31.000Z,101092
2018-08-31T19:21:31.000Z,101098
2018-08-31T19:23:31.000Z,101097
2018-08-31T19:25:31.000Z,101100
2018-08-31T19:27:31.000Z,101104
2018-08-31T19:29:31.000Z,101107
2018-08-31T19:31:31.000Z,101108
2018-08-31T19:32:31.000Z,101105
2018-08-31T19:33:31.000Z,101107
2018-08-31T19:35:31.000Z,101106
2018-08-31T19:37:31.000Z,101107
2018-08-31T19:39:31.000Z,101109
2018-08-31T19:41:16.000Z,101112
2018-08-31T19:42:31.000Z,101108
2018-08-31T19:43:31.000Z,101116
2018-08-31T19:44:31.000Z,101114
2018-08-31T19:46:16.000Z,101110
2018-08-31T19:47:31.000Z,101110
2018-08-31T19:48:31.000Z,101116
2018-08-31T19:50:31.000Z,101112
2018-08-31T19:51:31.000Z,101114
2018-08-31T19:53:31.000Z,101111
2018-08-31T19:54:31.000Z,101115
2018-08-31T19:56:31.000Z,101112
2018-08-31T19:58:31.000Z,101110
2018-08-31T20:00:31.000Z,101112
2018-08-31T20:02:31.000Z,101119
2018-08-31T20:04:31.000Z,101117
2018-08-31T20:05:31.000Z,101120
2018-08-31T20:07:31.000Z,101121
2018-08-31T20:09:32.000Z,101123
2018-08-31T20:11:32.000Z,101126
2018-08-31T20:13:32.000Z,101128
2018-08-31T20:14:32.000Z,101124
2018-08-31T20:16:32.000Z,101135
2018-08-31T20:18:32.000Z,101128
2018-08-31T20:20:32.000Z,101134